Airfield :
LOGIN :

Register | Disclaimer

   EN    FR    IT 

 










Legend :    VFR   Marginal VFR   IFR   Intensive IFR   Very Intensive IFR
Visi :
Ceiling :
>= 8 km
>= 3000ft
5 to 8 km
1000 to 3000 ft
1500m to 5 km
500 to 1000 ft
800 to 1500m
200 to 500 ft
< 800m
< 200 ft
Symbols :   Thunderstorms  Fog  Heavy snow  Heavy precipitations  Wind > 20 kt
SIGMETs :     Misc.  Thunderstorms  Icing  Turbulence  Mountain Waves  Volcanic Ashes






- Airport Elevation : 545 ft
- IATA code : PZY


LZPP - Piešťany

CURRENT METAR :
  • 060500Z 15008KT 130V190 7000 OVC007 M02/M03 Q1025

EXPIRED METARs :
  • 060430Z AUTO 14008KT 8000 OVC008/// M02/M03 Q1024
  • 060400Z AUTO 16006KT 8000 OVC008/// M02/M04 Q1025
  • 060330Z AUTO 15007KT 8000 OVC008/// M02/M04 Q1025
  • 060300Z AUTO 15008KT 9000 OVC008/// M02/M04 Q1025
  • 060230Z AUTO 14010KT 9999 OVC009/// M02/M04 Q1025

TAF TAF LZPP
Valid from the 05 at 21:00 until the 06 at 06:00 UTC


052000Z 0521/0606 15010KT 5000 BR OVC006
PROB40
TEMPO 0521/0600 2500 -FZDZ BR



MET'MAP, your aeronautical weather chart ! - Copyright ORBIFLY December 2007 - Disclaimer

ORBIFLY MET'MAP TEAM :

Programming & Development : Alexandra Zaïnal
Concept & original design : Baudouin d'Aumeries
Assistance for programming : Marc-Olivier Méhu
Technical & hardware support : Manuel Goepfert

Contact : metmap@orbifly.com




SOURCES & CREDITS :

   NOAA